createdAt,value
2023-03-05T00:01:26.074Z,10.40
2023-03-05T00:04:20.019Z,13.50
2023-03-05T00:07:17.873Z,11.10
2023-03-05T00:10:13.640Z,11.10
2023-03-05T00:13:09.013Z,10.00
2023-03-05T00:16:05.414Z,9.90
2023-03-05T00:19:00.969Z,9.30
2023-03-05T00:21:54.521Z,10.50
2023-03-05T00:24:51.569Z,13.00
2023-03-05T00:27:45.157Z,10.10
2023-03-05T00:30:38.942Z,11.40
2023-03-05T00:33:32.607Z,9.80
2023-03-05T00:36:26.710Z,9.10
2023-03-05T00:39:21.524Z,8.50
2023-03-05T00:42:15.128Z,9.10
2023-03-05T00:45:11.694Z,10.70
2023-03-05T00:47:47.826Z,8.30
2023-03-05T00:50:41.410Z,11.10
2023-03-05T00:53:35.051Z,9.30
2023-03-05T00:56:29.074Z,8.90
2023-03-05T00:59:22.641Z,9.30
2023-03-05T01:02:16.741Z,8.10
2023-03-05T01:05:14.452Z,8.60
2023-03-05T01:11:00.745Z,8.20
2023-03-05T01:13:54.421Z,8.30
2023-03-05T01:16:48.250Z,7.40
2023-03-05T01:19:41.879Z,6.30
2023-03-05T01:22:35.859Z,8.00
2023-03-05T01:25:29.765Z,7.90
2023-03-05T01:28:23.494Z,8.50
2023-03-05T01:31:17.096Z,7.70
2023-03-05T01:34:10.828Z,7.30
2023-03-05T01:37:04.394Z,8.50
2023-03-05T01:39:57.986Z,6.90
2023-03-05T01:42:57.788Z,6.00
2023-03-05T01:46:32.252Z,6.60
2023-03-05T01:49:28.284Z,8.30
2023-03-05T01:52:24.273Z,7.10
2023-03-05T01:55:22.077Z,7.60
2023-03-05T01:58:16.674Z,6.50
2023-03-05T02:01:10.538Z,7.10
2023-03-05T02:04:05.129Z,5.90
2023-03-05T02:06:59.975Z,6.20
2023-03-05T02:09:53.605Z,6.00
2023-03-05T02:12:49.584Z,5.10
2023-03-05T02:15:44.404Z,5.60
2023-03-05T02:18:38.190Z,5.90
2023-03-05T02:21:42.668Z,6.50
2023-03-05T02:24:40.020Z,4.80
2023-03-05T02:27:35.607Z,5.40
2023-03-05T02:30:31.237Z,6.80
2023-03-05T02:33:25.432Z,5.60
2023-03-05T02:36:19.668Z,7.70
2023-03-05T02:39:13.689Z,7.60
2023-03-05T02:42:07.954Z,8.10
2023-03-05T02:45:01.864Z,5.50
2023-03-05T02:47:55.772Z,5.50
2023-03-05T02:50:50.442Z,9.60
2023-03-05T02:53:43.954Z,5.50
2023-03-05T02:56:38.283Z,6.10
2023-03-05T02:59:31.936Z,4.70
2023-03-05T03:02:25.593Z,5.20
2023-03-05T03:05:19.556Z,5.40
2023-03-05T03:08:13.251Z,5.50
2023-03-05T03:11:14.135Z,5.40
2023-03-05T03:14:07.687Z,8.40
2023-03-05T03:17:02.119Z,5.60
2023-03-05T03:19:55.723Z,6.20
2023-03-05T03:22:50.036Z,6.70
2023-03-05T03:25:43.600Z,7.20
2023-03-05T03:28:37.333Z,6.00
2023-03-05T03:31:31.086Z,4.50
2023-03-05T03:34:24.752Z,5.10
2023-03-05T03:37:18.315Z,6.80
2023-03-05T03:40:14.624Z,5.80
2023-03-05T03:43:08.132Z,6.00
2023-03-05T03:46:01.961Z,4.30
2023-03-05T03:48:55.712Z,5.40
2023-03-05T03:51:50.244Z,6.50
2023-03-05T03:54:43.878Z,6.10
2023-03-05T03:57:37.624Z,5.60
2023-03-05T04:00:31.355Z,4.40
2023-03-05T04:03:24.904Z,4.80
2023-03-05T04:06:19.052Z,5.30
2023-03-05T04:09:13.567Z,4.50
2023-03-05T04:12:07.685Z,3.90
2023-03-05T04:15:01.448Z,5.00
2023-03-05T04:17:55.005Z,6.10
2023-03-05T04:20:48.539Z,4.70
2023-03-05T04:23:42.807Z,4.90
2023-03-05T04:26:36.493Z,3.50
2023-03-05T04:29:30.175Z,6.80
2023-03-05T04:32:28.627Z,5.60
2023-03-05T04:35:22.673Z,5.40
2023-03-05T04:38:16.383Z,4.70
2023-03-05T04:41:10.026Z,4.70
2023-03-05T04:44:03.786Z,4.90
2023-03-05T04:46:57.556Z,4.80
2023-03-05T04:49:51.338Z,6.50
2023-03-05T04:52:46.966Z,5.40
2023-03-05T04:55:40.648Z,5.50
2023-03-05T04:58:34.352Z,4.90
2023-03-05T05:01:27.932Z,4.70
2023-03-05T05:04:21.677Z,6.90
2023-03-05T05:07:15.268Z,5.20
2023-03-05T05:10:11.373Z,5.80
2023-03-05T05:13:05.088Z,6.50
2023-03-05T05:15:59.343Z,6.10
2023-03-05T05:18:52.927Z,7.50
2023-03-05T05:21:46.659Z,5.90
2023-03-05T05:24:25.622Z,6.60
2023-03-05T05:27:19.292Z,5.70
2023-03-05T05:30:15.806Z,7.10
2023-03-05T05:33:09.201Z,6.60
2023-03-05T05:36:05.455Z,6.40
2023-03-05T05:38:59.152Z,7.70
2023-03-05T05:41:55.364Z,6.50
2023-03-05T05:44:49.095Z,8.20
2023-03-05T05:47:42.920Z,6.90
2023-03-05T05:50:36.487Z,4.90
2023-03-05T05:53:30.360Z,5.70
2023-03-05T05:56:24.243Z,5.00
2023-03-05T05:59:17.840Z,5.80
2023-03-05T06:02:12.080Z,6.50
2023-03-05T06:05:06.184Z,5.00
2023-03-05T06:07:59.776Z,6.70
2023-03-05T06:10:59.192Z,6.90
2023-03-05T06:13:53.209Z,5.00
2023-03-05T06:16:46.818Z,6.30
2023-03-05T06:19:40.258Z,6.90
2023-03-05T06:22:36.676Z,6.80
2023-03-05T06:25:30.177Z,7.40
2023-03-05T06:28:24.290Z,6.50
2023-03-05T06:31:22.415Z,5.10
2023-03-05T06:34:16.088Z,6.70
2023-03-05T06:37:09.767Z,6.10
2023-03-05T06:40:03.985Z,5.60
2023-03-05T06:42:57.511Z,7.70
2023-03-05T06:45:51.134Z,5.10
2023-03-05T06:48:45.118Z,6.30
2023-03-05T06:51:42.419Z,5.80
2023-03-05T06:54:37.342Z,7.40
2023-03-05T06:57:30.897Z,8.50
2023-03-05T07:00:29.769Z,10.60
2023-03-05T07:03:23.860Z,6.80
2023-03-05T07:06:18.807Z,6.30
2023-03-05T07:09:16.757Z,9.00
2023-03-05T07:12:12.539Z,6.80
2023-03-05T07:15:07.336Z,8.00
2023-03-05T07:18:00.907Z,8.90
2023-03-05T07:20:55.445Z,7.40
2023-03-05T07:23:39.039Z,7.90
2023-03-05T07:26:34.420Z,8.40
2023-03-05T07:29:28.797Z,8.80
2023-03-05T07:32:22.539Z,9.20
2023-03-05T07:35:16.416Z,7.20
2023-03-05T07:38:10.029Z,8.50
2023-03-05T07:41:09.327Z,7.50
2023-03-05T07:44:03.205Z,9.00
2023-03-05T07:46:56.722Z,7.50
2023-03-05T07:49:50.291Z,7.60
2023-03-05T07:52:43.935Z,6.70
2023-03-05T07:55:42.879Z,6.90
2023-03-05T07:58:36.528Z,9.50
2023-03-05T08:01:31.508Z,7.50
2023-03-05T08:04:25.124Z,7.50
2023-03-05T08:07:19.989Z,6.60
2023-03-05T08:10:15.199Z,6.30
2023-03-05T08:13:09.000Z,7.00
2023-03-05T08:16:07.345Z,5.90
2023-03-05T08:19:01.467Z,7.60
2023-03-05T08:21:55.706Z,7.00
2023-03-05T08:24:50.513Z,7.00
2023-03-05T08:27:46.615Z,6.40
2023-03-05T08:30:41.446Z,8.80
2023-03-05T08:33:32.519Z,82.90
2023-03-05T08:36:27.403Z,8.10
2023-03-05T08:39:21.177Z,5.70
2023-03-05T08:42:15.063Z,5.20
2023-03-05T08:45:11.456Z,6.00
2023-03-05T08:48:05.348Z,5.60
2023-03-05T08:50:59.472Z,5.00
2023-03-05T08:53:53.892Z,6.80
2023-03-05T08:56:47.725Z,3.90
2023-03-05T08:59:41.753Z,13.30
2023-03-05T09:02:35.609Z,5.10
2023-03-05T09:05:30.288Z,4.80
2023-03-05T09:08:24.249Z,3.70
2023-03-05T09:11:18.025Z,3.10
2023-03-05T09:14:12.867Z,4.90
2023-03-05T09:17:06.907Z,4.50
2023-03-05T09:20:00.821Z,6.60
2023-03-05T09:22:54.528Z,6.20
2023-03-05T09:25:48.760Z,3.70
2023-03-05T09:28:42.781Z,3.60
2023-03-05T09:31:37.858Z,3.20
2023-03-05T09:34:31.807Z,3.50
2023-03-05T09:37:25.747Z,4.00
2023-03-05T09:40:23.263Z,5.80
2023-03-05T09:46:38.425Z,4.40
2023-03-05T09:49:50.736Z,5.00
2023-03-05T09:52:51.675Z,5.10
2023-03-05T09:55:51.660Z,4.80
2023-03-05T09:58:47.715Z,10.30
2023-03-05T10:01:45.842Z,5.30
2023-03-05T10:04:47.662Z,5.20
2023-03-05T10:07:45.556Z,6.10
2023-03-05T10:10:44.515Z,6.60
2023-03-05T10:13:44.032Z,6.90
2023-03-05T10:17:07.190Z,5.70
2023-03-05T10:20:36.766Z,6.60
2023-03-05T10:23:52.923Z,5.50
2023-03-05T10:26:59.983Z,6.90
2023-03-05T10:30:13.445Z,6.20
2023-03-05T10:33:22.161Z,6.10
2023-03-05T10:36:48.227Z,6.40
2023-03-05T10:40:13.032Z,8.00
2023-03-05T10:43:21.848Z,7.40
2023-03-05T10:46:22.114Z,7.10
2023-03-05T10:49:22.656Z,7.70
2023-03-05T10:52:24.356Z,8.10
2023-03-05T10:55:23.746Z,6.50
2023-03-05T10:58:19.067Z,8.30
2023-03-05T11:01:26.769Z,8.40
2023-03-05T11:04:36.053Z,7.30
2023-03-05T11:07:42.999Z,9.20
2023-03-05T11:10:36.844Z,13.30
2023-03-05T11:13:32.791Z,14.10
2023-03-05T11:16:30.085Z,12.50
2023-03-05T11:19:29.818Z,15.40
2023-03-05T11:22:27.598Z,12.10
2023-03-05T11:25:22.649Z,23.70
2023-03-05T11:28:32.333Z,10.70
2023-03-05T11:31:30.623Z,13.10
2023-03-05T11:34:36.292Z,12.10
2023-03-05T11:37:33.811Z,12.40
2023-03-05T11:40:50.780Z,11.60
2023-03-05T11:43:46.573Z,9.00
2023-03-05T11:46:52.013Z,17.00
2023-03-05T11:49:51.813Z,11.60
2023-03-05T11:52:52.493Z,12.30
2023-03-05T11:58:49.855Z,12.50
2023-03-05T12:01:48.181Z,11.80
2023-03-05T12:04:42.070Z,12.20
2023-03-05T12:07:45.201Z,10.50
2023-03-05T12:10:39.115Z,11.80
2023-03-05T12:13:41.447Z,10.70
2023-03-05T12:16:43.200Z,11.10
2023-03-05T12:19:51.042Z,10.30
2023-03-05T12:22:47.014Z,11.60
2023-03-05T12:25:51.904Z,10.60
2023-03-05T12:29:02.374Z,12.70
2023-03-05T12:34:57.778Z,13.00
2023-03-05T12:38:25.558Z,14.90
2023-03-05T12:41:46.369Z,12.70
2023-03-05T12:44:40.372Z,12.90
2023-03-05T12:47:34.042Z,15.60
2023-03-05T12:50:59.390Z,12.10
2023-03-05T12:53:56.061Z,10.50
2023-03-05T12:56:49.838Z,11.90
2023-03-05T12:59:51.272Z,11.30
2023-03-05T13:02:47.334Z,11.10
2023-03-05T13:05:49.143Z,12.10
2023-03-05T13:08:43.785Z,10.80
2023-03-05T13:11:40.268Z,10.40
2023-03-05T13:14:41.905Z,11.70
2023-03-05T13:17:41.410Z,13.00
2023-03-05T13:20:42.570Z,12.30
2023-03-05T13:23:38.692Z,10.80
2023-03-05T13:26:37.414Z,12.40
2023-03-05T13:29:31.486Z,18.00
2023-03-05T13:32:30.115Z,22.80
2023-03-05T13:35:23.888Z,22.90
2023-03-05T13:38:27.944Z,28.50
2023-03-05T13:41:27.883Z,26.70
2023-03-05T13:44:25.513Z,29.50
2023-03-05T13:50:29.854Z,30.10
2023-03-05T13:53:28.807Z,34.90
2023-03-05T13:56:24.913Z,37.40
2023-03-05T13:59:25.665Z,38.50
2023-03-05T14:02:23.870Z,36.80
2023-03-05T14:05:20.365Z,36.50
2023-03-05T14:08:23.778Z,33.00
2023-03-05T14:11:20.897Z,35.30
2023-03-05T14:14:21.232Z,34.30
2023-03-05T14:17:37.322Z,29.10
2023-03-05T14:20:32.169Z,30.90
2023-03-05T14:23:42.989Z,36.90
2023-03-05T14:26:41.806Z,33.00
2023-03-05T14:29:36.209Z,42.90
2023-03-05T14:32:35.917Z,55.40
2023-03-05T14:35:32.102Z,88.60
2023-03-05T14:38:34.940Z,79.80
2023-03-05T14:41:41.743Z,99.50
2023-03-05T14:44:35.856Z,86.90
2023-03-05T14:47:31.278Z,93.70
2023-03-05T14:50:28.417Z,96.90
2023-03-05T14:53:26.749Z,91.50
2023-03-05T14:56:27.490Z,83.60
2023-03-05T14:59:22.364Z,79.80
2023-03-05T15:02:22.911Z,86.90
2023-03-05T15:05:17.065Z,81.00
2023-03-05T15:08:16.534Z,75.80
2023-03-05T15:11:11.568Z,78.40
2023-03-05T15:14:05.473Z,90.40
2023-03-05T15:16:59.725Z,75.20
2023-03-05T15:19:53.844Z,65.70
2023-03-05T15:22:47.894Z,71.30
2023-03-05T15:25:42.168Z,67.90
2023-03-05T15:28:40.627Z,72.50
2023-03-05T15:31:38.949Z,64.20
2023-03-05T15:34:34.860Z,64.00
2023-03-05T15:37:28.779Z,61.00
2023-03-05T15:40:23.050Z,62.80
2023-03-05T15:43:19.001Z,54.60
2023-03-05T15:46:13.024Z,56.80
2023-03-05T15:49:09.800Z,62.90
2023-03-05T15:52:03.723Z,55.40
2023-03-05T15:54:57.329Z,53.40
2023-03-05T15:57:53.111Z,47.80
2023-03-05T16:00:47.453Z,48.60
2023-03-05T16:03:41.278Z,46.40
2023-03-05T16:06:36.413Z,38.40
2023-03-05T16:09:33.171Z,41.80
2023-03-05T16:12:32.367Z,43.10
2023-03-05T16:15:27.043Z,36.80
2023-03-05T16:18:21.446Z,37.20
2023-03-05T16:21:15.669Z,39.90
2023-03-05T16:24:10.086Z,34.80
2023-03-05T16:27:04.977Z,34.10
2023-03-05T16:29:58.777Z,34.50
2023-03-05T16:32:53.791Z,33.50
2023-03-05T16:35:49.115Z,42.10
2023-03-05T16:38:42.981Z,27.80
2023-03-05T16:41:36.948Z,25.50
2023-03-05T16:44:31.034Z,30.10
2023-03-05T16:47:24.877Z,24.50
2023-03-05T16:50:18.537Z,30.90
2023-03-05T16:53:13.241Z,28.00
2023-03-05T16:56:10.025Z,26.20
2023-03-05T16:59:05.539Z,26.70
2023-03-05T17:02:00.230Z,27.20
2023-03-05T17:04:55.929Z,23.70
2023-03-05T17:07:50.134Z,26.30
2023-03-05T17:10:44.727Z,23.60
2023-03-05T17:13:38.854Z,26.10
2023-03-05T17:16:32.561Z,20.00
2023-03-05T17:19:26.436Z,26.60
2023-03-05T17:22:20.040Z,23.10
2023-03-05T17:25:14.174Z,19.30
2023-03-05T17:28:08.549Z,20.20
2023-03-05T17:31:02.302Z,19.50
2023-03-05T17:33:56.713Z,19.10
2023-03-05T17:36:50.982Z,19.50
2023-03-05T17:39:44.636Z,19.10
2023-03-05T17:42:38.435Z,19.60
2023-03-05T17:45:32.631Z,14.40
2023-03-05T17:48:27.280Z,17.60
2023-03-05T17:51:21.335Z,16.70
2023-03-05T17:54:14.967Z,15.90
2023-03-05T17:57:09.444Z,15.90
2023-03-05T18:00:03.510Z,16.90
2023-03-05T18:02:59.258Z,15.20
2023-03-05T18:05:53.416Z,15.80
2023-03-05T18:08:47.147Z,15.80
2023-03-05T18:11:40.915Z,16.80
2023-03-05T18:14:34.530Z,15.00
2023-03-05T18:17:28.253Z,16.60
2023-03-05T18:20:30.744Z,14.20
2023-03-05T18:23:24.740Z,15.80
2023-03-05T18:26:18.736Z,13.00
2023-03-05T18:29:12.883Z,13.00
2023-03-05T18:32:07.434Z,12.90
2023-03-05T18:35:01.214Z,12.60
2023-03-05T18:37:55.148Z,13.10
2023-03-05T18:40:51.159Z,16.10
2023-03-05T18:43:44.868Z,12.20
2023-03-05T18:46:38.767Z,13.40
2023-03-05T18:49:32.608Z,11.70
2023-03-05T18:52:26.446Z,10.80
2023-03-05T18:55:22.629Z,10.70
2023-03-05T18:58:17.601Z,12.90
2023-03-05T19:01:11.295Z,13.80
2023-03-05T19:04:05.286Z,12.10
2023-03-05T19:06:58.941Z,13.50
2023-03-05T19:09:58.933Z,10.60
2023-03-05T19:13:40.717Z,15.30
2023-03-05T19:16:24.379Z,14.60
2023-03-05T19:19:24.396Z,15.50
2023-03-05T19:22:18.115Z,13.70
2023-03-05T19:25:14.540Z,13.30
2023-03-05T19:28:11.371Z,15.00
2023-03-05T19:31:05.497Z,12.10
2023-03-05T19:33:59.621Z,15.00
2023-03-05T19:36:53.326Z,11.60
2023-03-05T19:39:47.348Z,16.20
2023-03-05T19:42:41.498Z,14.60
2023-03-05T19:45:37.675Z,16.20
2023-03-05T19:48:31.790Z,11.50
2023-03-05T19:51:27.123Z,13.20
2023-03-05T19:54:22.990Z,13.70
2023-03-05T19:57:16.725Z,13.30
2023-03-05T20:00:13.665Z,13.20
2023-03-05T20:03:07.531Z,13.30
2023-03-05T20:06:01.195Z,13.70
2023-03-05T20:08:55.088Z,11.10
2023-03-05T20:11:49.347Z,13.30
2023-03-05T20:14:42.940Z,12.50
2023-03-05T20:17:36.561Z,13.10
2023-03-05T20:20:31.078Z,13.20
2023-03-05T20:23:25.238Z,11.60
2023-03-05T20:26:19.594Z,11.10
2023-03-05T20:29:17.741Z,13.30
2023-03-05T20:32:11.939Z,12.90
2023-03-05T20:35:06.232Z,13.20
2023-03-05T20:38:25.066Z,11.40
2023-03-05T20:41:21.848Z,12.20
2023-03-05T20:44:17.031Z,11.40
2023-03-05T20:47:42.396Z,10.60
2023-03-05T20:50:36.272Z,11.80
2023-03-05T20:53:30.827Z,13.50
2023-03-05T20:56:24.977Z,12.50
2023-03-05T20:59:18.683Z,12.00
2023-03-05T21:02:13.954Z,13.00
2023-03-05T21:05:09.403Z,12.00
2023-03-05T21:08:05.214Z,12.10
2023-03-05T21:10:59.352Z,10.30
2023-03-05T21:13:53.343Z,10.00
2023-03-05T21:16:47.273Z,12.30
2023-03-05T21:19:42.603Z,11.90
2023-03-05T21:22:36.538Z,10.00
2023-03-05T21:25:32.698Z,10.60
2023-03-05T21:28:26.679Z,11.10
2023-03-05T21:31:23.181Z,10.10
2023-03-05T21:34:18.864Z,9.30
2023-03-05T21:37:12.687Z,10.10
2023-03-05T21:40:08.719Z,12.70
2023-03-05T21:43:03.048Z,10.70
2023-03-05T21:45:57.747Z,9.80
2023-03-05T21:48:51.389Z,10.00
2023-03-05T21:52:22.299Z,10.90
2023-03-05T21:55:19.303Z,10.00
2023-03-05T21:58:13.083Z,10.90
2023-03-05T22:01:07.831Z,11.00
2023-03-05T22:04:01.501Z,11.50
2023-03-05T22:06:55.225Z,10.40
2023-03-05T22:09:48.820Z,11.00
2023-03-05T22:13:13.263Z,13.10
2023-03-05T22:16:09.090Z,11.40
2023-03-05T22:19:03.160Z,11.40
2023-03-05T22:21:57.504Z,12.70
2023-03-05T22:24:51.086Z,12.60
2023-03-05T22:27:45.579Z,11.90
2023-03-05T22:30:44.048Z,10.80
2023-03-05T22:33:37.841Z,10.80
2023-03-05T22:36:31.546Z,11.80
2023-03-05T22:39:25.142Z,12.90
2023-03-05T22:42:19.177Z,15.60
2023-03-05T22:45:17.242Z,12.60
2023-03-05T22:48:12.489Z,11.80
2023-03-05T22:51:06.719Z,12.80
2023-03-05T22:54:00.321Z,12.60
2023-03-05T22:56:54.078Z,12.40
2023-03-05T22:59:49.895Z,12.40
2023-03-05T23:02:43.900Z,13.20
2023-03-05T23:05:39.444Z,11.30
2023-03-05T23:08:33.259Z,11.20
2023-03-05T23:11:27.342Z,13.60
2023-03-05T23:14:20.934Z,12.00
2023-03-05T23:17:14.719Z,11.90
2023-03-05T23:20:12.005Z,10.70
2023-03-05T23:23:07.118Z,11.50
2023-03-05T23:26:01.133Z,11.00
2023-03-05T23:28:55.509Z,10.90
2023-03-05T23:31:49.112Z,11.90
2023-03-05T23:34:43.615Z,11.10
2023-03-05T23:37:37.464Z,8.80
2023-03-05T23:40:35.543Z,9.90
2023-03-05T23:43:30.158Z,11.40
2023-03-05T23:46:23.836Z,9.80
2023-03-05T23:49:17.516Z,11.50
2023-03-05T23:52:12.017Z,10.00
2023-03-05T23:55:06.247Z,9.40
2023-03-05T23:58:00.176Z,10.00
